createdAt,value
2022-09-10T00:00:58.933Z,22.80
2022-09-10T00:03:25.646Z,22.97
2022-09-10T00:05:52.357Z,22.83
2022-09-10T00:08:19.396Z,22.00
2022-09-10T00:10:49.790Z,22.00
2022-09-10T00:13:17.314Z,20.43
2022-09-10T00:15:45.409Z,20.77
2022-09-10T00:18:12.273Z,19.87
2022-09-10T00:20:47.965Z,20.33
2022-09-10T00:23:15.763Z,19.13
2022-09-10T00:25:42.880Z,16.63
2022-09-10T00:28:09.648Z,16.83
2022-09-10T00:30:42.742Z,16.03
2022-09-10T00:33:09.992Z,13.63
2022-09-10T00:35:36.973Z,11.53
2022-09-10T00:38:04.047Z,11.00
2022-09-10T00:40:31.630Z,10.47
2022-09-10T00:42:58.520Z,11.60
2022-09-10T00:45:29.388Z,11.77
2022-09-10T00:47:57.215Z,12.23
2022-09-10T00:50:25.702Z,14.37
2022-09-10T00:52:52.738Z,15.20
2022-09-10T00:55:19.544Z,16.10
2022-09-10T00:57:47.263Z,16.63
2022-09-10T01:00:14.171Z,16.50
2022-09-10T01:02:41.851Z,16.33
2022-09-10T01:05:09.217Z,16.03
2022-09-10T01:07:36.433Z,16.37
2022-09-10T01:10:06.902Z,16.03
2022-09-10T01:12:49.100Z,15.97
2022-09-10T01:15:16.234Z,15.57
2022-09-10T01:17:52.021Z,16.97
2022-09-10T01:20:48.153Z,17.37
2022-09-10T01:23:33.752Z,18.20
2022-09-10T01:26:20.071Z,17.97
2022-09-10T01:28:49.664Z,18.73
2022-09-10T01:31:26.518Z,18.90
2022-09-10T01:33:57.377Z,19.20
2022-09-10T01:36:25.248Z,18.17
2022-09-10T01:38:52.327Z,19.47
2022-09-10T01:41:21.301Z,19.53
2022-09-10T01:43:47.981Z,19.57
2022-09-10T01:46:27.249Z,19.43
2022-09-10T01:49:14.066Z,18.40
2022-09-10T01:51:46.955Z,17.83
2022-09-10T01:54:26.367Z,18.80
2022-09-10T01:57:18.562Z,17.77
2022-09-10T02:00:01.378Z,16.20
2022-09-10T02:02:29.979Z,17.07
2022-09-10T02:04:56.571Z,17.43
2022-09-10T02:07:24.197Z,18.30
2022-09-10T02:09:51.903Z,17.00
2022-09-10T02:12:19.706Z,17.07
2022-09-10T02:14:50.965Z,17.57
2022-09-10T02:17:36.542Z,17.33
2022-09-10T02:20:04.502Z,16.70
2022-09-10T02:22:31.863Z,17.10
2022-09-10T02:24:58.718Z,17.17
2022-09-10T02:27:25.342Z,17.33
2022-09-10T02:29:52.122Z,16.73
2022-09-10T02:32:18.769Z,17.80
2022-09-10T02:34:48.300Z,17.27
2022-09-10T02:37:16.902Z,17.50
2022-09-10T02:39:44.961Z,17.43
2022-09-10T02:42:13.202Z,17.67
2022-09-10T02:44:39.905Z,17.80
2022-09-10T02:47:06.630Z,19.30
2022-09-10T02:49:35.433Z,17.43
2022-09-10T02:52:04.838Z,18.07
2022-09-10T02:54:31.552Z,17.70
2022-09-10T02:56:58.305Z,17.67
2022-09-10T02:59:25.151Z,17.30
2022-09-10T03:01:51.937Z,16.77
2022-09-10T03:04:18.706Z,18.03
2022-09-10T03:06:49.327Z,18.00
2022-09-10T03:09:16.694Z,17.57
2022-09-10T03:11:43.318Z,16.50
2022-09-10T03:14:10.206Z,16.30
2022-09-10T03:16:37.450Z,16.33
2022-09-10T03:19:06.340Z,17.43
2022-09-10T03:21:34.410Z,17.37
2022-09-10T03:24:01.282Z,17.10
2022-09-10T03:26:30.509Z,17.87
2022-09-10T03:28:57.697Z,18.57
2022-09-10T03:31:27.501Z,18.57
2022-09-10T03:33:54.734Z,18.53
2022-09-10T03:36:22.883Z,19.90
2022-09-10T03:38:50.442Z,20.23
2022-09-10T03:41:17.245Z,19.43
2022-09-10T03:43:44.771Z,21.07
2022-09-10T03:46:12.235Z,19.93
2022-09-10T03:48:43.726Z,19.57
2022-09-10T03:51:11.186Z,19.80
2022-09-10T03:53:38.970Z,20.93
2022-09-10T03:56:07.487Z,20.43
2022-09-10T03:58:35.848Z,20.47
2022-09-10T04:01:03.906Z,19.17
2022-09-10T04:03:33.476Z,19.43
2022-09-10T04:06:00.277Z,19.67
2022-09-10T04:08:27.002Z,20.13
2022-09-10T04:10:55.169Z,20.03
2022-09-10T04:13:23.117Z,20.43
2022-09-10T04:15:49.820Z,19.43
2022-09-10T04:18:16.757Z,19.13
2022-09-10T04:20:47.105Z,20.30
2022-09-10T04:23:15.346Z,18.07
2022-09-10T04:25:42.603Z,20.63
2022-09-10T04:28:09.891Z,20.53
2022-09-10T04:30:37.811Z,19.10
2022-09-10T04:33:04.739Z,20.27
2022-09-10T04:35:32.878Z,20.23
2022-09-10T04:38:02.176Z,19.30
2022-09-10T04:40:29.325Z,18.17
2022-09-10T04:42:56.661Z,18.47
2022-09-10T04:45:23.548Z,19.00
2022-09-10T04:47:51.265Z,19.20
2022-09-10T04:50:17.945Z,18.47
2022-09-10T04:53:04.568Z,18.50
2022-09-10T04:55:31.398Z,18.07
2022-09-10T04:57:58.096Z,19.20
2022-09-10T05:00:26.644Z,18.70
2022-09-10T05:02:53.908Z,18.43
2022-09-10T05:05:20.801Z,18.77
2022-09-10T05:07:48.718Z,18.53
2022-09-10T05:10:15.423Z,19.43
2022-09-10T05:12:42.364Z,17.50
2022-09-10T05:15:10.998Z,18.23
2022-09-10T05:17:37.673Z,17.37
2022-09-10T05:20:07.159Z,16.90
2022-09-10T05:22:40.771Z,17.40
2022-09-10T05:25:08.279Z,17.00
2022-09-10T05:27:34.972Z,16.97
2022-09-10T05:30:02.290Z,16.23
2022-09-10T05:32:30.188Z,16.97
2022-09-10T05:34:57.139Z,17.17
2022-09-10T05:37:23.856Z,16.00
2022-09-10T05:39:50.705Z,15.57
2022-09-10T05:42:18.761Z,15.63
2022-09-10T05:44:45.703Z,14.80
2022-09-10T05:47:12.329Z,15.20
2022-09-10T05:49:39.324Z,14.57
2022-09-10T05:52:06.232Z,15.17
2022-09-10T05:54:35.331Z,13.90
2022-09-10T05:57:02.014Z,14.17
2022-09-10T05:59:30.673Z,12.83
2022-09-10T06:01:58.376Z,13.07
2022-09-10T06:04:25.807Z,12.70
2022-09-10T06:06:53.395Z,12.13
2022-09-10T06:09:20.520Z,11.77
2022-09-10T06:11:54.432Z,12.73
2022-09-10T06:14:22.570Z,13.03
2022-09-10T06:16:50.029Z,12.00
2022-09-10T06:19:16.809Z,12.03
2022-09-10T06:21:43.474Z,11.47
2022-09-10T06:24:11.245Z,11.87
2022-09-10T06:26:41.657Z,12.23
2022-09-10T06:29:12.509Z,11.47
2022-09-10T06:31:40.896Z,12.30
2022-09-10T06:34:08.222Z,11.80
2022-09-10T06:36:35.244Z,10.87
2022-09-10T06:39:03.590Z,10.67
2022-09-10T06:41:38.760Z,10.40
2022-09-10T06:44:10.478Z,10.83
2022-09-10T06:49:31.491Z,11.43
2022-09-10T06:52:02.095Z,11.50
2022-09-10T06:54:29.302Z,11.77
2022-09-10T06:57:01.463Z,12.27
2022-09-10T06:59:31.439Z,11.67
2022-09-10T07:01:58.430Z,11.50
2022-09-10T07:04:25.427Z,11.63
2022-09-10T07:06:52.277Z,11.50
2022-09-10T07:09:18.970Z,12.67
2022-09-10T07:11:55.108Z,11.13
2022-09-10T07:14:21.824Z,10.37
2022-09-10T07:16:51.454Z,9.70
2022-09-10T07:19:20.975Z,11.63
2022-09-10T07:21:50.716Z,12.33
2022-09-10T07:24:17.542Z,11.30
2022-09-10T07:26:59.506Z,10.20
2022-09-10T07:29:26.551Z,10.30
2022-09-10T07:31:53.896Z,9.97
2022-09-10T07:34:24.775Z,10.50
2022-09-10T07:36:52.609Z,9.87
2022-09-10T07:39:25.349Z,10.13
2022-09-10T07:41:53.509Z,10.20
2022-09-10T07:44:24.149Z,10.37
2022-09-10T07:46:52.014Z,10.63
2022-09-10T07:49:20.791Z,10.50
2022-09-10T07:51:59.079Z,10.77
2022-09-10T07:54:30.885Z,10.20
2022-09-10T07:56:58.198Z,10.27
2022-09-10T07:59:26.798Z,9.83
2022-09-10T08:02:00.278Z,11.10
2022-09-10T08:04:36.491Z,10.97
2022-09-10T08:07:05.887Z,9.83
2022-09-10T08:09:34.989Z,10.13
2022-09-10T08:12:03.160Z,9.60
2022-09-10T08:14:30.078Z,9.27
2022-09-10T08:16:56.950Z,11.10
2022-09-10T08:19:23.872Z,11.53
2022-09-10T08:21:52.119Z,11.10
2022-09-10T08:24:27.758Z,10.33
2022-09-10T08:26:54.732Z,11.23
2022-09-10T08:29:22.509Z,11.43
2022-09-10T08:31:50.798Z,11.97
2022-09-10T08:34:23.071Z,12.83
2022-09-10T08:36:57.476Z,13.27
2022-09-10T08:39:24.305Z,11.20
2022-09-10T08:41:57.424Z,11.20
2022-09-10T08:44:43.050Z,11.00
2022-09-10T08:47:10.108Z,11.73
2022-09-10T08:49:38.553Z,11.40
2022-09-10T08:52:17.384Z,11.27
2022-09-10T08:54:52.382Z,11.10
2022-09-10T08:57:30.981Z,12.17
2022-09-10T08:59:57.906Z,11.97
2022-09-10T09:02:47.900Z,12.87
2022-09-10T09:05:23.093Z,14.50
2022-09-10T09:07:53.354Z,14.30
2022-09-10T09:10:20.890Z,14.30
2022-09-10T09:12:50.472Z,14.40
2022-09-10T09:15:19.503Z,14.13
2022-09-10T09:17:53.133Z,14.50
2022-09-10T09:20:32.956Z,14.57
2022-09-10T09:23:13.804Z,14.30
2022-09-10T09:25:40.809Z,14.63
2022-09-10T09:28:10.349Z,14.93
2022-09-10T09:30:39.405Z,14.40
2022-09-10T09:33:18.744Z,15.27
2022-09-10T09:35:49.152Z,14.90
2022-09-10T09:38:24.332Z,16.93
2022-09-10T09:40:56.307Z,15.53
2022-09-10T09:43:42.780Z,16.43
2022-09-10T09:46:15.209Z,16.83
2022-09-10T09:48:44.744Z,16.17
2022-09-10T09:51:13.750Z,15.40
2022-09-10T09:53:42.340Z,14.00
2022-09-10T09:56:12.973Z,14.67
2022-09-10T09:58:40.498Z,14.57
2022-09-10T10:01:09.855Z,14.50
2022-09-10T10:03:48.484Z,13.63
2022-09-10T10:06:15.586Z,14.13
2022-09-10T10:08:44.325Z,13.70
2022-09-10T10:11:12.846Z,13.00
2022-09-10T10:13:43.311Z,12.63
2022-09-10T10:16:22.312Z,15.67
2022-09-10T10:18:49.114Z,16.37
2022-09-10T10:21:16.970Z,18.13
2022-09-10T10:23:44.037Z,17.77
2022-09-10T10:26:30.598Z,16.87
2022-09-10T10:28:59.301Z,15.03
2022-09-10T10:31:46.294Z,15.77
2022-09-10T10:34:19.095Z,16.67
2022-09-10T10:36:53.461Z,16.73
2022-09-10T10:39:24.434Z,14.97
2022-09-10T10:42:04.538Z,15.90
2022-09-10T10:44:37.670Z,15.97
2022-09-10T10:47:23.484Z,15.03
2022-09-10T10:50:11.908Z,16.20
2022-09-10T10:52:42.090Z,15.27
2022-09-10T10:55:24.434Z,14.80
2022-09-10T10:57:51.371Z,14.90
2022-09-10T11:00:19.274Z,14.57
2022-09-10T11:02:53.194Z,15.67
2022-09-10T11:05:20.220Z,15.57
2022-09-10T11:07:47.392Z,15.23
2022-09-10T11:10:20.082Z,16.10
2022-09-10T11:12:51.388Z,14.50
2022-09-10T11:15:18.236Z,15.10
2022-09-10T11:17:48.840Z,14.77
2022-09-10T11:20:28.473Z,14.27
2022-09-10T11:23:00.356Z,14.43
2022-09-10T11:25:28.135Z,14.40
2022-09-10T11:27:56.155Z,14.47
2022-09-10T11:30:23.337Z,15.13
2022-09-10T11:33:00.714Z,14.87
2022-09-10T11:35:27.522Z,15.17
2022-09-10T11:38:03.681Z,13.63
2022-09-10T11:40:42.811Z,13.73
2022-09-10T11:43:20.274Z,13.97
2022-09-10T11:45:49.808Z,13.83
2022-09-10T11:48:18.378Z,12.60
2022-09-10T11:50:47.140Z,11.40
2022-09-10T11:53:14.365Z,12.93
2022-09-10T11:55:44.263Z,13.73
2022-09-10T11:58:13.129Z,13.67
2022-09-10T12:00:52.809Z,13.17
2022-09-10T12:03:30.120Z,14.10
2022-09-10T12:06:00.411Z,12.10
2022-09-10T12:08:30.819Z,13.23
2022-09-10T12:11:04.784Z,13.40
2022-09-10T12:13:34.541Z,12.20
2022-09-10T12:16:02.547Z,13.10
2022-09-10T12:18:30.727Z,13.27
2022-09-10T12:21:08.377Z,13.03
2022-09-10T12:23:39.901Z,12.57
2022-09-10T12:26:06.820Z,11.80
2022-09-10T12:28:42.576Z,12.73
2022-09-10T12:31:09.938Z,13.70
2022-09-10T12:33:57.798Z,14.47
2022-09-10T12:36:27.479Z,15.30
2022-09-10T12:39:13.137Z,14.43
2022-09-10T12:41:40.122Z,14.57
2022-09-10T12:44:26.789Z,14.87
2022-09-10T12:47:12.266Z,14.00
2022-09-10T12:49:49.531Z,14.07
2022-09-10T12:52:18.241Z,13.53
2022-09-10T12:55:01.041Z,13.13
2022-09-10T12:57:30.761Z,13.50
2022-09-10T13:00:00.785Z,14.47
2022-09-10T13:02:31.959Z,15.47
2022-09-10T13:05:00.154Z,15.57
2022-09-10T13:07:34.284Z,16.73
2022-09-10T13:10:16.437Z,17.67
2022-09-10T13:12:46.658Z,16.20
2022-09-10T13:15:17.901Z,16.50
2022-09-10T13:17:47.758Z,16.70
2022-09-10T13:20:14.498Z,16.80
2022-09-10T13:23:04.254Z,16.07
2022-09-10T13:25:40.178Z,16.10
2022-09-10T13:28:25.973Z,17.07
2022-09-10T13:31:03.235Z,16.80
2022-09-10T13:33:30.329Z,18.37
2022-09-10T13:35:57.388Z,17.67
2022-09-10T13:38:44.697Z,18.60
2022-09-10T13:41:11.581Z,18.73
2022-09-10T13:43:41.794Z,18.27
2022-09-10T13:46:10.235Z,20.90
2022-09-10T13:48:44.041Z,20.27
2022-09-10T13:51:23.741Z,20.00
2022-09-10T13:53:50.472Z,20.30
2022-09-10T13:56:21.771Z,20.90
2022-09-10T13:58:49.284Z,20.37
2022-09-10T14:01:16.139Z,21.57
2022-09-10T14:03:45.002Z,20.00
2022-09-10T14:06:12.320Z,19.13
2022-09-10T14:08:42.325Z,18.23
2022-09-10T14:11:12.002Z,17.30
2022-09-10T14:13:57.946Z,17.10
2022-09-10T14:16:35.868Z,19.20
2022-09-10T14:19:03.219Z,23.90
2022-09-10T14:21:34.439Z,26.67
2022-09-10T14:24:01.567Z,30.47
2022-09-10T14:26:30.210Z,22.27
2022-09-10T14:28:58.990Z,18.80
2022-09-10T14:31:26.335Z,17.93
2022-09-10T14:33:58.501Z,17.00
2022-09-10T14:36:29.488Z,16.50
2022-09-10T14:39:01.127Z,18.03
2022-09-10T14:41:28.466Z,17.27
2022-09-10T14:44:14.358Z,18.03
2022-09-10T14:46:54.187Z,19.00
2022-09-10T14:49:28.095Z,18.30
2022-09-10T14:51:55.446Z,17.80
2022-09-10T14:54:22.848Z,19.63
2022-09-10T14:56:49.635Z,19.63
2022-09-10T14:59:17.276Z,21.93
2022-09-10T15:01:48.699Z,21.17
2022-09-10T15:04:16.460Z,20.77
2022-09-10T15:06:45.864Z,21.43
2022-09-10T15:09:13.216Z,19.13
2022-09-10T15:11:41.885Z,20.03
2022-09-10T15:14:09.970Z,19.13
2022-09-10T15:16:37.189Z,20.00
2022-09-10T15:19:04.257Z,19.70
2022-09-10T15:21:31.399Z,18.37
2022-09-10T15:23:58.408Z,18.33
2022-09-10T15:26:25.566Z,18.20
2022-09-10T15:28:53.972Z,18.43
2022-09-10T15:31:20.761Z,23.90
2022-09-10T15:33:47.592Z,22.23
2022-09-10T15:36:14.523Z,31.57
2022-09-10T15:38:41.274Z,32.23
2022-09-10T15:41:12.743Z,35.17
2022-09-10T15:43:41.450Z,28.77
2022-09-10T15:46:08.128Z,26.87
2022-09-10T15:48:34.945Z,23.53
2022-09-10T15:51:03.037Z,22.93
2022-09-10T15:53:32.166Z,19.73
2022-09-10T15:55:59.591Z,18.80
2022-09-10T15:58:26.318Z,18.20
2022-09-10T16:00:53.211Z,18.17
2022-09-10T16:03:20.661Z,19.23
2022-09-10T16:05:47.373Z,19.30
2022-09-10T16:08:14.282Z,18.10
2022-09-10T16:10:41.105Z,19.10
2022-09-10T16:13:07.819Z,18.10
2022-09-10T16:15:36.090Z,16.67
2022-09-10T16:18:03.083Z,17.20
2022-09-10T16:20:29.988Z,17.83
2022-09-10T16:22:58.325Z,16.93
2022-09-10T16:25:25.498Z,18.17
2022-09-10T16:27:52.436Z,17.87
2022-09-10T16:30:19.331Z,17.83
2022-09-10T16:32:46.372Z,17.80
2022-09-10T16:35:13.251Z,17.80
2022-09-10T16:37:40.130Z,18.13
2022-09-10T16:40:07.377Z,20.70
2022-09-10T16:42:35.502Z,20.97
2022-09-10T16:45:02.222Z,21.90
2022-09-10T16:47:28.949Z,21.73
2022-09-10T16:49:55.680Z,20.10
2022-09-10T16:52:25.693Z,22.33
2022-09-10T16:54:52.974Z,23.70
2022-09-10T16:57:21.380Z,25.77
2022-09-10T16:59:48.355Z,22.03
2022-09-10T17:02:15.924Z,22.33
2022-09-10T17:04:42.737Z,22.63
2022-09-10T17:07:10.534Z,22.37
2022-09-10T17:09:37.399Z,22.27
2022-09-10T17:12:04.642Z,21.23
2022-09-10T17:14:31.421Z,20.67
2022-09-10T17:16:58.703Z,20.40
2022-09-10T17:19:26.630Z,23.50
2022-09-10T17:21:55.644Z,24.50
2022-09-10T17:24:23.235Z,24.77
2022-09-10T17:26:50.465Z,24.37
2022-09-10T17:29:18.012Z,23.83
2022-09-10T17:31:46.297Z,24.60
2022-09-10T17:34:13.318Z,22.50
2022-09-10T17:36:40.719Z,22.40
2022-09-10T17:39:08.404Z,22.27
2022-09-10T17:41:35.376Z,21.87
2022-09-10T17:44:02.522Z,21.60
2022-09-10T17:46:31.270Z,21.20
2022-09-10T17:48:58.232Z,23.20
2022-09-10T17:51:25.744Z,21.70
2022-09-10T17:53:53.790Z,22.77
2022-09-10T17:56:20.749Z,22.77
2022-09-10T17:58:47.966Z,39.77
2022-09-10T18:01:23.276Z,39.83
2022-09-10T18:03:51.488Z,25.23
2022-09-10T18:06:18.440Z,19.97
2022-09-10T18:08:45.481Z,18.80
2022-09-10T18:11:16.535Z,19.07
2022-09-10T18:13:44.690Z,19.13
2022-09-10T18:19:28.045Z,18.70
2022-09-10T18:21:54.759Z,18.53
2022-09-10T18:24:27.399Z,18.63
2022-09-10T18:26:54.816Z,18.63
2022-09-10T18:29:22.921Z,17.80
2022-09-10T18:31:51.273Z,18.00
2022-09-10T18:34:22.959Z,18.90
2022-09-10T18:36:53.596Z,20.80
2022-09-10T18:39:20.666Z,19.90
2022-09-10T18:41:47.492Z,20.90
2022-09-10T18:44:18.628Z,22.43
2022-09-10T18:46:46.046Z,22.67
2022-09-10T18:49:16.830Z,22.07
2022-09-10T18:51:47.590Z,22.43
2022-09-10T18:54:15.243Z,22.30
2022-09-10T18:56:42.310Z,21.93
2022-09-10T18:59:12.876Z,22.47
2022-09-10T19:01:40.674Z,22.07
2022-09-10T19:04:07.884Z,22.27
2022-09-10T19:06:35.623Z,20.60
2022-09-10T19:09:06.873Z,22.33
2022-09-10T19:11:34.700Z,30.77
2022-09-10T19:14:02.129Z,27.43
2022-09-10T19:16:29.692Z,24.00
2022-09-10T19:18:57.907Z,24.13
2022-09-10T19:21:24.975Z,22.70
2022-09-10T19:23:53.421Z,23.27
2022-09-10T19:26:23.829Z,23.03
2022-09-10T19:28:51.044Z,22.67
2022-09-10T19:31:19.597Z,27.40
2022-09-10T19:33:46.612Z,27.30
2022-09-10T19:36:14.583Z,33.10
2022-09-10T19:38:43.467Z,36.60
2022-09-10T19:41:12.218Z,35.43
2022-09-10T19:43:39.141Z,33.47
2022-09-10T19:46:06.690Z,32.40
2022-09-10T19:48:33.664Z,24.60
2022-09-10T19:51:01.937Z,25.87
2022-09-10T19:53:30.759Z,22.93
2022-09-10T19:56:11.368Z,22.73
2022-09-10T19:58:42.421Z,23.03
2022-09-10T20:01:09.458Z,23.23
2022-09-10T20:03:41.169Z,23.27
2022-09-10T20:06:07.996Z,23.70
2022-09-10T20:08:35.229Z,24.33
2022-09-10T20:11:02.391Z,29.87
2022-09-10T20:13:31.667Z,22.80
2022-09-10T20:16:02.848Z,24.40
2022-09-10T20:18:30.691Z,17.57
2022-09-10T20:21:07.808Z,16.00
2022-09-10T20:23:36.215Z,15.40
2022-09-10T20:26:10.638Z,15.20
2022-09-10T20:28:38.391Z,18.07
2022-09-10T20:31:11.368Z,18.83
2022-09-10T20:33:38.725Z,14.90
2022-09-10T20:36:06.187Z,21.60
2022-09-10T20:38:34.850Z,23.67
2022-09-10T20:41:01.601Z,20.47
2022-09-10T20:43:28.850Z,15.13
2022-09-10T20:45:57.232Z,24.87
2022-09-10T20:48:26.891Z,23.47
2022-09-10T20:50:54.487Z,22.67
2022-09-10T20:53:21.304Z,17.33
2022-09-10T20:55:48.317Z,17.50
2022-09-10T20:58:15.435Z,19.77
2022-09-10T21:00:43.223Z,15.40
2022-09-10T21:03:10.186Z,18.97
2022-09-10T21:05:36.866Z,20.43
2022-09-10T21:08:04.170Z,16.57
2022-09-10T21:10:32.104Z,18.60
2022-09-10T21:12:59.287Z,19.30
2022-09-10T21:15:26.295Z,19.20
2022-09-10T21:17:53.198Z,15.30
2022-09-10T21:20:19.937Z,17.87
2022-09-10T21:22:46.803Z,17.23
2022-09-10T21:25:14.369Z,18.20
2022-09-10T21:27:42.447Z,16.77
2022-09-10T21:30:09.442Z,17.70
2022-09-10T21:32:36.793Z,17.57
2022-09-10T21:35:03.824Z,16.93
2022-09-10T21:37:30.635Z,18.33
2022-09-10T21:42:42.467Z,18.93
2022-09-10T21:47:58.306Z,17.50
2022-09-10T21:53:11.222Z,17.43
2022-09-10T21:55:37.871Z,18.50
2022-09-10T21:58:05.215Z,17.27
2022-09-10T22:00:31.861Z,19.23
2022-09-10T22:02:58.672Z,19.23
2022-09-10T22:05:25.278Z,18.67
2022-09-10T22:07:53.052Z,17.13
2022-09-10T22:10:19.964Z,18.90
2022-09-10T22:12:46.716Z,18.87
2022-09-10T22:15:13.486Z,18.30
2022-09-10T22:17:40.214Z,18.43
2022-09-10T22:20:07.352Z,17.50
2022-09-10T22:22:34.284Z,18.00
2022-09-10T22:25:01.261Z,17.77
2022-09-10T22:27:27.941Z,16.73
2022-09-10T22:29:56.416Z,17.03
2022-09-10T22:32:23.413Z,17.43
2022-09-10T22:34:50.398Z,16.77
2022-09-10T22:37:17.973Z,16.67
2022-09-10T22:39:44.652Z,16.03
2022-09-10T22:42:12.580Z,16.27
2022-09-10T22:44:39.159Z,16.90
2022-09-10T22:47:05.863Z,18.07
2022-09-10T22:49:32.458Z,18.77
2022-09-10T22:51:59.086Z,18.50
2022-09-10T22:54:25.712Z,18.23
2022-09-10T22:56:52.427Z,19.07
2022-09-10T22:59:19.029Z,19.30
2022-09-10T23:04:32.639Z,18.70
2022-09-10T23:06:59.269Z,19.20
2022-09-10T23:09:26.317Z,20.27
2022-09-10T23:11:52.926Z,19.93
2022-09-10T23:14:20.825Z,19.70
2022-09-10T23:16:51.831Z,19.80
2022-09-10T23:19:19.692Z,20.57
2022-09-10T23:21:46.789Z,20.60
2022-09-10T23:24:14.253Z,21.30
2022-09-10T23:26:41.430Z,20.83
2022-09-10T23:29:08.191Z,19.77
2022-09-10T23:31:35.529Z,19.90
2022-09-10T23:34:05.089Z,19.40
2022-09-10T23:36:32.444Z,19.63
2022-09-10T23:38:59.329Z,19.13
2022-09-10T23:41:26.044Z,20.03
2022-09-10T23:43:52.702Z,20.13
2022-09-10T23:46:19.371Z,19.70
2022-09-10T23:48:46.396Z,19.90
2022-09-10T23:51:13.697Z,19.17
2022-09-10T23:53:40.528Z,18.37
2022-09-10T23:56:07.296Z,19.97
2022-09-10T23:58:34.066Z,20.53
